Time;durP1;ratioP1;P1;durP2;ratioP2;P2;SDS_P1;SDS_P2;PMS_P1;PMS_P2;Temp;Humidity;BMP_temperature;BMP_pressure;BME280_temperature;BME280_humidity;BME280_pressure;Samples;Min_cycle;Max_cycle;Signal;HPM_P1;HPM_P2
2023/01/07 00:00:48;;;;;;;;;;;;;;;9.93;100.00;101543.84;5026722;28;19924;-61
2023/01/07 00:03:15;;;;;;;;;;;;;;;10.00;100.00;101552.09;5025090;28;19956;-64
2023/01/07 00:05:40;;;;;;;;;;;;;;;9.95;100.00;101557.38;5025133;28;19956;-64
2023/01/07 00:08:06;;;;;;;;;;;;;;;9.87;100.00;101551.03;5026003;28;19956;-62
2023/01/07 00:10:32;;;;;;;;;;;;;;;9.88;100.00;101547.25;5026678;28;19925;-63
2023/01/07 00:12:58;;;;;;;;;;;;;;;9.84;100.00;101537.75;5026112;28;19924;-69
2023/01/07 00:15:23;;;;;;;;;;;;;;;9.87;100.00;101545.53;5025098;28;19921;-65
2023/01/07 00:17:48;;;;;;;;;;;;;;;9.87;100.00;101533.72;5027515;28;20364;-69
2023/01/07 00:20:13;;;;;;;;;;;;;;;9.81;100.00;101538.16;5026249;28;19921;-68
2023/01/07 00:22:38;;;;;;;;;;;;;;;9.78;100.00;101544.06;5026134;28;20000;-64
2023/01/07 00:25:04;;;;;;;;;;;;;;;9.80;100.00;101538.38;5021115;28;19917;-68
2023/01/07 00:27:29;;;;;;;;;;;;;;;9.86;100.00;101538.38;5024935;28;20308;-63
2023/01/07 00:29:54;;;;;;;;;;;;;;;9.80;100.00;101532.88;5026081;28;19921;-68
2023/01/07 00:32:20;;;;;;;;;;;;;;;9.99;100.00;101532.06;5026986;28;19944;-68
2023/01/07 00:34:45;;;;;;;;;;;;;;;9.88;100.00;101527.16;5026654;28;19928;-68
2023/01/07 00:39:54;;;;;;;;;;;;;;;9.84;100.00;101518.53;5025279;28;19928;-68
2023/01/07 00:45:03;;;;;;;;;;;;;;;9.85;100.00;101519.38;5027142;28;20075;-62
2023/01/07 00:47:28;;;;;;;;;;;;;;;9.82;100.00;101525.28;5025025;28;20419;-67
2023/01/07 00:49:53;;;;;;;;;;;;;;;9.78;100.00;101516.63;5026031;28;20032;-61
2023/01/07 00:52:18;;;;;;;;;;;;;;;9.80;100.00;101506.28;5041213;28;19921;-62
2023/01/07 00:54:43;;;;;;;;;;;;;;;9.77;100.00;101509.44;5026485;28;19917;-65
2023/01/07 00:57:11;;;;;;;;;;;;;;;9.67;100.00;101495.28;5025953;28;20601;-69
2023/01/07 00:59:37;;;;;;;;;;;;;;;9.69;100.00;101508.81;5029740;28;19925;-68
2023/01/07 01:02:02;;;;;;;;;;;;;;;9.80;100.00;101495.31;5029565;28;19928;-68
2023/01/07 01:04:27;;;;;;;;;;;;;;;9.68;100.00;101487.91;5030757;28;19921;-69
2023/01/07 01:06:52;;;;;;;;;;;;;;;9.64;100.00;101489.41;5029380;28;19921;-69
2023/01/07 01:09:19;;;;;;;;;;;;;;;9.60;100.00;101488.97;5028302;28;19943;-65
2023/01/07 01:11:44;;;;;;;;;;;;;;;9.61;100.00;101490.63;5030626;28;19921;-68
2023/01/07 01:14:10;;;;;;;;;;;;;;;9.68;100.00;101475.06;5029960;28;19929;-64
2023/01/07 01:16:35;;;;;;;;;;;;;;;9.55;100.00;101486.00;5029158;28;19929;-68
2023/01/07 01:19:00;;;;;;;;;;;;;;;9.51;100.00;101473.75;5029833;28;19967;-68
2023/01/07 01:21:25;;;;;;;;;;;;;;;9.49;100.00;101470.38;5028698;28;20016;-68
2023/01/07 01:23:51;;;;;;;;;;;;;;;9.57;100.00;101465.53;5028676;28;19925;-60
2023/01/07 01:26:16;;;;;;;;;;;;;;;9.39;100.00;101464.47;5029964;28;19920;-65
2023/01/07 01:28:42;;;;;;;;;;;;;;;9.48;100.00;101474.16;5029665;28;19914;-68
2023/01/07 01:31:08;;;;;;;;;;;;;;;9.36;100.00;101463.81;5030230;28;20356;-59
2023/01/07 01:33:33;;;;;;;;;;;;;;;9.39;100.00;101464.47;5029951;28;19928;-68
2023/01/07 01:36:01;;;;;;;;;;;;;;;9.39;100.00;101461.72;5029914;28;19924;-67
2023/01/07 01:38:26;;;;;;;;;;;;;;;9.44;100.00;101462.78;5025952;28;19925;-68
2023/01/07 01:40:51;;;;;;;;;;;;;;;9.49;100.00;101463.00;5012725;28;20012;-66
2023/01/07 01:43:46;;;;;;;;;;;;;;;9.50;100.00;101455.63;5028579;28;20249;-62
2023/01/07 01:46:16;;;;;;;;;;;;;;;9.41;100.00;101463.19;5028560;28;20039;-64
2023/01/07 01:48:45;;;;;;;;;;;;;;;9.53;100.00;101464.28;5028889;28;19936;-64
2023/01/07 01:51:12;;;;;;;;;;;;;;;9.45;100.00;101469.09;5028544;28;20296;-67
2023/01/07 01:53:38;;;;;;;;;;;;;;;9.40;100.00;101471.63;5028287;28;19948;-61
2023/01/07 01:56:08;;;;;;;;;;;;;;;9.48;100.00;101464.06;5029759;28;20011;-67
2023/01/07 01:58:35;;;;;;;;;;;;;;;9.44;100.00;101470.16;5014587;28;20620;-68
2023/01/07 02:01:01;;;;;;;;;;;;;;;9.36;100.00;101476.66;5029159;28;19921;-66
2023/01/07 02:03:28;;;;;;;;;;;;;;;9.42;100.00;101472.25;5029317;28;19925;-68
2023/01/07 02:05:53;;;;;;;;;;;;;;;9.36;100.00;101466.53;5029672;28;19921;-68
2023/01/07 02:08:20;;;;;;;;;;;;;;;9.36;100.00;101458.31;5053996;22;20430;-66
2023/01/07 02:10:47;;;;;;;;;;;;;;;9.35;100.00;101459.38;4977080;28;20285;-66
2023/01/07 02:13:16;;;;;;;;;;;;;;;9.30;100.00;101469.28;4982325;28;19929;-64
2023/01/07 02:15:44;;;;;;;;;;;;;;;9.28;100.00;101453.06;4980066;28;19933;-63
2023/01/07 02:18:15;;;;;;;;;;;;;;;9.30;100.00;101461.91;4980975;28;19921;-66
2023/01/07 02:21:00;;;;;;;;;;;;;;;9.23;100.00;101460.22;4974551;28;19929;-66
2023/01/07 02:23:25;;;;;;;;;;;;;;;9.24;100.00;101462.72;4976654;28;19928;-65
2023/01/07 02:26:17;;;;;;;;;;;;;;;9.25;100.00;101452.63;4984222;28;19922;-62
2023/01/07 02:28:58;;;;;;;;;;;;;;;9.22;100.00;101453.00;4951670;28;19923;-62
2023/01/07 02:31:42;;;;;;;;;;;;;;;9.20;100.00;101450.50;4975157;28;19980;-66
2023/01/07 02:34:07;;;;;;;;;;;;;;;9.17;100.00;101453.63;4987191;28;19930;-61
2023/01/07 02:36:38;;;;;;;;;;;;;;;9.22;100.00;101462.06;4987882;28;19925;-65
2023/01/07 02:39:22;;;;;;;;;;;;;;;9.24;100.00;101460.00;4968396;28;19931;-68
2023/01/07 02:42:11;;;;;;;;;;;;;;;9.24;100.00;101454.50;4959094;28;19929;-67
2023/01/07 02:44:54;;;;;;;;;;;;;;;9.19;100.00;101451.53;4968928;28;19923;-68
2023/01/07 02:47:27;;;;;;;;;;;;;;;9.20;100.00;101452.38;4968461;28;20427;-69
2023/01/07 02:49:53;;;;;;;;;;;;;;;9.19;100.00;101446.06;4984806;28;19964;-67
2023/01/07 02:52:20;;;;;;;;;;;;;;;9.28;100.00;101447.56;4985312;28;20503;-68
2023/01/07 02:54:48;;;;;;;;;;;;;;;9.25;100.00;101439.75;4983032;28;19929;-68
2023/01/07 02:57:32;;;;;;;;;;;;;;;9.25;100.00;101441.66;4989068;28;19948;-68
2023/01/07 02:59:57;;;;;;;;;;;;;;;9.21;100.00;101441.22;4975243;28;19996;-68
2023/01/07 03:02:49;;;;;;;;;;;;;;;9.22;100.00;101436.56;4984154;28;20353;-68
2023/01/07 03:05:36;;;;;;;;;;;;;;;9.16;100.00;101440.97;4970698;28;19926;-68
2023/01/07 03:08:09;;;;;;;;;;;;;;;9.16;100.00;101427.28;4967957;28;19932;-69
2023/01/07 03:10:53;;;;;;;;;;;;;;;9.22;100.00;101431.94;4971602;28;20008;-61
2023/01/07 03:13:36;;;;;;;;;;;;;;;9.25;100.00;101425.22;4988477;28;19920;-62
2023/01/07 03:16:06;;;;;;;;;;;;;;;9.30;100.00;101418.03;4968205;28;20322;-67
2023/01/07 03:18:35;;;;;;;;;;;;;;;9.31;100.00;101419.72;4970459;28;19922;-68
2023/01/07 03:21:03;;;;;;;;;;;;;;;9.33;100.00;101408.56;4978962;28;19929;-66
2023/01/07 03:23:29;;;;;;;;;;;;;;;9.35;100.00;101410.03;4975962;28;19975;-68
2023/01/07 03:25:56;;;;;;;;;;;;;;;9.38;100.00;101406.03;4968232;28;20363;-69
2023/01/07 03:28:24;;;;;;;;;;;;;;;9.43;100.00;101406.25;4969057;28;20293;-67
2023/01/07 03:30:51;;;;;;;;;;;;;;;9.42;100.00;101400.97;4978479;28;19991;-61
2023/01/07 03:33:20;;;;;;;;;;;;;;;9.39;100.00;101401.41;4969831;28;19918;-64
2023/01/07 03:35:46;;;;;;;;;;;;;;;9.42;100.00;101399.06;4987081;28;19922;-64
2023/01/07 03:38:13;;;;;;;;;;;;;;;9.55;100.00;101395.50;5001719;28;19918;-68
2023/01/07 03:40:38;;;;;;;;;;;;;;;9.55;100.00;101396.34;4986406;28;20977;-66
2023/01/07 03:43:04;;;;;;;;;;;;;;;9.49;100.00;101391.72;4969065;28;19918;-66
2023/01/07 03:45:29;;;;;;;;;;;;;;;9.61;100.00;101380.94;4976203;28;19921;-63
2023/01/07 03:47:55;;;;;;;;;;;;;;;9.52;100.00;101384.94;4987736;28;19928;-66
2023/01/07 03:50:21;;;;;;;;;;;;;;;9.57;100.00;101371.44;4976640;28;19921;-68
2023/01/07 03:52:50;;;;;;;;;;;;;;;9.51;100.00;101373.13;4980652;28;20316;-65
2023/01/07 03:55:15;;;;;;;;;;;;;;;9.58;100.00;101378.63;4978654;28;19964;-68
2023/01/07 03:57:41;;;;;;;;;;;;;;;9.61;100.00;101367.22;4983227;28;20409;-64
2023/01/07 04:00:07;;;;;;;;;;;;;;;9.56;100.00;101367.03;4986023;28;19925;-62
2023/01/07 04:02:33;;;;;;;;;;;;;;;9.58;100.00;101363.03;4970159;28;19922;-66
2023/01/07 04:04:58;;;;;;;;;;;;;;;9.62;100.00;101369.75;4968404;28;19914;-61
2023/01/07 04:07:23;;;;;;;;;;;;;;;9.71;100.00;101364.91;4976316;28;20032;-65
2023/01/07 04:09:49;;;;;;;;;;;;;;;9.66;100.00;101359.22;4978858;28;19925;-68
2023/01/07 04:12:15;;;;;;;;;;;;;;;9.64;100.00;101355.84;4971174;28;20296;-69
2023/01/07 04:14:40;;;;;;;;;;;;;;;9.71;100.00;101359.41;4977459;28;19931;-61
2023/01/07 04:17:05;;;;;;;;;;;;;;;9.80;100.00;101349.91;4988402;28;20016;-67
2023/01/07 04:19:30;;;;;;;;;;;;;;;9.69;100.00;101344.25;4986379;28;19981;-64
2023/01/07 04:21:56;;;;;;;;;;;;;;;9.74;100.00;101337.06;4975941;28;19961;-68
2023/01/07 04:24:21;;;;;;;;;;;;;;;9.78;100.00;101337.47;4966948;28;20080;-67
2023/01/07 04:26:46;;;;;;;;;;;;;;;9.71;100.00;101336.63;4966404;28;19930;-69
2023/01/07 04:29:11;;;;;;;;;;;;;;;9.68;100.00;101332.44;4984301;28;19922;-64
2023/01/07 04:31:36;;;;;;;;;;;;;;;9.73;100.00;101329.91;4974480;28;19949;-66
2023/01/07 04:34:02;;;;;;;;;;;;;;;9.68;100.00;101332.44;4970285;28;19921;-68
2023/01/07 04:36:27;;;;;;;;;;;;;;;9.69;100.00;101328.63;4972312;28;19945;-64
2023/01/07 04:38:52;;;;;;;;;;;;;;;9.77;100.00;101325.66;4970750;28;19918;-68
2023/01/07 04:41:17;;;;;;;;;;;;;;;9.70;100.00;101322.06;4972944;28;19944;-68
2023/01/07 04:43:43;;;;;;;;;;;;;;;9.77;100.00;101319.31;4990971;28;19918;-68
2023/01/07 04:46:08;;;;;;;;;;;;;;;9.72;100.00;101310.88;4992017;28;19929;-62
2023/01/07 04:48:33;;;;;;;;;;;;;;;9.75;100.00;101316.78;4990182;28;19918;-64
2023/01/07 04:50:58;;;;;;;;;;;;;;;9.70;100.00;101315.75;4986479;28;20328;-68
2023/01/07 04:53:23;;;;;;;;;;;;;;;9.76;100.00;101318.47;4989329;28;19922;-69
2023/01/07 04:55:49;;;;;;;;;;;;;;;9.65;100.00;101310.91;4990303;28;19922;-68
2023/01/07 04:58:14;;;;;;;;;;;;;;;9.57;100.00;101313.84;4990995;28;19918;-69
2023/01/07 05:00:39;;;;;;;;;;;;;;;9.63;100.00;101307.53;4977529;28;19966;-64
2023/01/07 05:03:04;;;;;;;;;;;;;;;9.62;100.00;101308.56;4971739;28;19919;-68
2023/01/07 05:05:29;;;;;;;;;;;;;;;9.59;100.00;101300.78;4989324;28;19922;-69
2023/01/07 05:07:55;;;;;;;;;;;;;;;9.61;100.00;101298.66;4988223;28;19922;-69
2023/01/07 05:10:20;;;;;;;;;;;;;;;9.62;100.00;101300.34;4982467;28;19953;-69
2023/01/07 05:12:45;;;;;;;;;;;;;;;9.64;100.00;101306.47;4989075;28;19940;-67
2023/01/07 05:15:10;;;;;;;;;;;;;;;9.73;100.00;101298.84;4990869;28;20016;-68
2023/01/07 05:17:36;;;;;;;;;;;;;;;9.71;100.00;101296.34;4989497;28;20327;-67
2023/01/07 05:20:01;;;;;;;;;;;;;;;9.69;100.00;101289.38;4984884;28;19978;-69
2023/01/07 05:22:26;;;;;;;;;;;;;;;9.71;100.00;101290.00;4967767;28;19930;-61
2023/01/07 05:24:51;;;;;;;;;;;;;;;9.69;100.00;101295.72;4971727;28;19922;-65
2023/01/07 05:27:16;;;;;;;;;;;;;;;9.75;100.00;101286.63;4971077;28;19922;-66
2023/01/07 05:29:42;;;;;;;;;;;;;;;9.74;100.00;101295.06;4977405;28;20438;-66
2023/01/07 05:32:07;;;;;;;;;;;;;;;9.79;100.00;101281.56;4968388;28;19922;-63
2023/01/07 05:34:32;;;;;;;;;;;;;;;9.79;100.00;101279.66;4970826;28;20237;-67
2023/01/07 05:36:57;;;;;;;;;;;;;;;9.70;100.00;101280.94;4969453;28;20300;-65
2023/01/07 05:39:22;;;;;;;;;;;;;;;9.68;100.00;101282.19;4983053;28;19930;-68
2023/01/07 05:41:48;;;;;;;;;;;;;;;9.73;100.00;101274.16;4970039;28;19926;-65
2023/01/07 05:44:13;;;;;;;;;;;;;;;9.68;100.00;101277.59;4970740;28;20001;-68
2023/01/07 05:46:38;;;;;;;;;;;;;;;9.74;100.00;101273.13;4951142;28;19919;-67
2023/01/07 05:49:03;;;;;;;;;;;;;;;9.67;100.00;101272.28;4951676;28;19919;-62
2023/01/07 05:51:29;;;;;;;;;;;;;;;9.68;100.00;101269.34;4975462;28;19995;-68
2023/01/07 05:53:54;;;;;;;;;;;;;;;9.67;100.00;101264.91;4968590;28;19985;-67
2023/01/07 05:56:19;;;;;;;;;;;;;;;9.74;100.00;101271.22;4970912;28;19918;-68
2023/01/07 05:58:44;;;;;;;;;;;;;;;9.73;100.00;101269.56;4969827;28;20265;-68
2023/01/07 06:01:10;;;;;;;;;;;;;;;9.74;100.00;101267.66;4969743;28;20348;-65
2023/01/07 06:03:35;;;;;;;;;;;;;;;9.76;100.00;101271.00;4972248;28;19958;-67
2023/01/07 06:06:05;;;;;;;;;;;;;;;9.70;100.00;101260.91;4965608;28;20269;-66
2023/01/07 06:08:31;;;;;;;;;;;;;;;9.80;100.00;101259.38;4968588;28;20404;-67
2023/01/07 06:10:56;;;;;;;;;;;;;;;9.76;100.00;101254.53;4974882;28;19926;-67
2023/01/07 06:13:22;;;;;;;;;;;;;;;9.78;100.00;101244.19;4974960;28;19922;-63
2023/01/07 06:15:47;;;;;;;;;;;;;;;9.75;100.00;101248.22;4970881;28;19929;-66
2023/01/07 06:18:12;;;;;;;;;;;;;;;9.73;100.00;101246.72;4974967;28;19967;-67
2023/01/07 06:20:37;;;;;;;;;;;;;;;9.81;100.00;101257.50;4988752;28;19918;-58
2023/01/07 06:23:03;;;;;;;;;;;;;;;9.84;100.00;101241.44;4984636;28;19965;-67
2023/01/07 06:25:29;;;;;;;;;;;;;;;9.79;100.00;101237.66;4976138;28;20403;-67
2023/01/07 06:27:56;;;;;;;;;;;;;;;9.74;100.00;101232.00;4987682;28;20033;-67
2023/01/07 06:30:21;;;;;;;;;;;;;;;9.87;100.00;101232.75;4974244;28;20123;-67
2023/01/07 06:32:46;;;;;;;;;;;;;;;9.90;100.00;101231.50;4969539;28;20013;-67
2023/01/07 06:35:11;;;;;;;;;;;;;;;9.82;100.00;101223.50;4971999;28;20365;-68
2023/01/07 06:37:36;;;;;;;;;;;;;;;9.81;100.00;101225.41;4988333;28;19918;-61
2023/01/07 06:40:02;;;;;;;;;;;;;;;9.73;100.00;101217.44;4976987;28;19949;-67
2023/01/07 06:42:27;;;;;;;;;;;;;;;9.78;100.00;101214.88;4973167;28;19994;-67
2023/01/07 06:44:53;;;;;;;;;;;;;;;9.85;100.00;101212.94;4969385;28;19922;-68
2023/01/07 06:47:18;;;;;;;;;;;;;;;9.81;100.00;101211.69;4969677;28;20345;-65
2023/01/07 06:49:43;;;;;;;;;;;;;;;9.81;100.00;101208.09;4967321;28;20061;-67
2023/01/07 06:52:08;;;;;;;;;;;;;;;9.75;100.00;101208.97;4979865;28;20060;-67
2023/01/07 06:54:33;;;;;;;;;;;;;;;9.79;100.00;101202.00;4975188;28;19929;-67
2023/01/07 06:56:59;;;;;;;;;;;;;;;9.83;100.00;101209.59;4986818;28;19929;-67
2023/01/07 06:59:24;;;;;;;;;;;;;;;9.74;100.00;101208.13;4982121;28;21912;-60
2023/01/07 07:01:49;;;;;;;;;;;;;;;9.72;100.00;101212.16;4972902;28;20017;-63
2023/01/07 07:04:14;;;;;;;;;;;;;;;9.76;100.00;101199.69;4987049;28;19921;-67
2023/01/07 07:06:39;;;;;;;;;;;;;;;9.72;100.00;101207.50;4976542;28;19929;-64
2023/01/07 07:09:05;;;;;;;;;;;;;;;9.68;100.00;101199.91;4967753;28;19965;-67
2023/01/07 07:11:30;;;;;;;;;;;;;;;9.69;100.00;101202.47;4983204;28;19922;-68
2023/01/07 07:13:55;;;;;;;;;;;;;;;9.66;100.00;101199.31;4987536;28;19972;-64
2023/01/07 07:16:22;;;;;;;;;;;;;;;9.61;100.00;101178.00;4988138;28;20055;-67
2023/01/07 07:18:48;;;;;;;;;;;;;;;9.84;100.00;101177.50;4968451;28;19922;-65
2023/01/07 07:21:13;;;;;;;;;;;;;;;9.73;100.00;101186.41;4968024;28;19942;-68
2023/01/07 07:23:38;;;;;;;;;;;;;;;9.63;100.00;101186.88;4967071;28;19972;-65
2023/01/07 07:26:03;;;;;;;;;;;;;;;9.66;99.93;101178.19;4969656;28;20029;-68
2023/01/07 07:28:29;;;;;;;;;;;;;;;9.66;100.00;101185.59;4974411;28;19977;-61
2023/01/07 07:30:54;;;;;;;;;;;;;;;9.73;99.63;101175.41;4971394;28;19922;-68
2023/01/07 07:33:19;;;;;;;;;;;;;;;9.66;99.23;101182.84;4971963;28;19968;-67
2023/01/07 07:35:45;;;;;;;;;;;;;;;9.66;100.00;101180.94;4988111;28;19918;-66
2023/01/07 07:38:10;;;;;;;;;;;;;;;9.62;100.00;101174.19;4987028;28;20009;-63
2023/01/07 07:40:35;;;;;;;;;;;;;;;9.85;98.35;101174.53;4987299;28;19918;-64
2023/01/07 07:43:01;;;;;;;;;;;;;;;9.76;99.35;101169.50;4970270;28;19932;-68
2023/01/07 07:45:26;;;;;;;;;;;;;;;9.76;98.04;101169.50;4988327;28;19965;-68
2023/01/07 07:47:51;;;;;;;;;;;;;;;9.66;99.68;101164.50;4987620;28;19925;-68
2023/01/07 07:50:16;;;;;;;;;;;;;;;9.66;100.00;101163.66;4973320;28;19945;-63
2023/01/07 07:52:41;;;;;;;;;;;;;;;9.70;99.20;101162.16;4966991;28;19918;-63
2023/01/07 07:55:07;;;;;;;;;;;;;;;9.66;99.11;101158.16;4968368;28;19942;-68
2023/01/07 07:57:32;;;;;;;;;;;;;;;9.69;97.99;101161.31;4968312;28;20280;-66
2023/01/07 07:59:57;;;;;;;;;;;;;;;9.69;98.45;101155.00;4967128;28;19930;-68
2023/01/07 08:02:22;;;;;;;;;;;;;;;9.67;99.58;101157.94;4969776;28;19950;-67
2023/01/07 08:04:47;;;;;;;;;;;;;;;9.66;98.82;101158.16;4967431;28;19945;-61
2023/01/07 08:07:13;;;;;;;;;;;;;;;9.72;98.91;101146.31;4967039;28;19926;-66
2023/01/07 08:09:38;;;;;;;;;;;;;;;9.65;97.59;101142.78;4971166;28;19922;-65
2023/01/07 08:12:03;;;;;;;;;;;;;;;9.71;97.84;101150.13;4970967;28;19922;-67
2023/01/07 08:14:29;;;;;;;;;;;;;;;9.89;96.59;101144.78;4971829;28;20321;-68
2023/01/07 08:16:54;;;;;;;;;;;;;;;9.74;97.77;101136.81;4971727;28;19924;-68
2023/01/07 08:19:19;;;;;;;;;;;;;;;9.74;98.32;101150.53;4972277;28;19988;-68
2023/01/07 08:21:44;;;;;;;;;;;;;;;9.83;96.62;101134.66;4970723;28;19918;-60
2023/01/07 08:24:09;;;;;;;;;;;;;;;9.88;96.31;101134.84;4971699;28;19924;-65
2023/01/07 08:26:34;;;;;;;;;;;;;;;9.85;96.10;101127.06;4972535;28;20369;-67
2023/01/07 08:29:00;;;;;;;;;;;;;;;9.94;95.71;101139.47;4971688;28;19915;-68
2023/01/07 08:31:25;;;;;;;;;;;;;;;9.87;95.41;101135.91;4971589;28;19929;-66
2023/01/07 08:33:50;;;;;;;;;;;;;;;9.86;95.71;101136.97;4970028;28;19918;-67
2023/01/07 08:36:15;;;;;;;;;;;;;;;9.86;97.00;101137.81;4986167;28;19954;-68
2023/01/07 08:38:40;;;;;;;;;;;;;;;9.90;95.83;101126.41;4968632;28;19922;-61
2023/01/07 08:41:06;;;;;;;;;;;;;;;9.89;95.95;101128.31;4972187;28;19922;-68
2023/01/07 08:43:32;;;;;;;;;;;;;;;9.92;96.02;101124.28;4971608;28;19918;-68
2023/01/07 08:45:57;;;;;;;;;;;;;;;9.97;94.64;101127.19;4970874;28;19937;-68
2023/01/07 08:48:22;;;;;;;;;;;;;;;9.96;95.10;101118.13;4971342;28;19910;-67
2023/01/07 08:50:49;;;;;;;;;;;;;;;10.08;93.66;101123.75;4971275;28;20025;-66
2023/01/07 08:53:14;;;;;;;;;;;;;;;9.91;94.06;101112.47;4970113;28;20333;-60
2023/01/07 08:55:39;;;;;;;;;;;;;;;9.94;94.67;101122.16;4970980;28;19921;-66
2023/01/07 08:58:04;;;;;;;;;;;;;;;10.09;94.36;101128.19;4971588;28;19973;-67
2023/01/07 09:00:30;;;;;;;;;;;;;;;9.96;93.63;101122.78;4970984;28;20325;-65
2023/01/07 09:02:55;;;;;;;;;;;;;;;9.99;93.88;101114.13;4970816;28;20006;-68
2023/01/07 09:05:20;;;;;;;;;;;;;;;10.01;94.06;101118.31;4971555;28;19918;-60
2023/01/07 09:07:45;;;;;;;;;;;;;;;10.01;93.63;101109.25;4969219;28;20064;-63
2023/01/07 09:10:10;;;;;;;;;;;;;;;10.11;92.95;101104.09;4985843;28;19925;-68
2023/01/07 09:12:36;;;;;;;;;;;;;;;10.16;92.68;101100.69;4971354;28;19922;-64
2023/01/07 09:15:02;;;;;;;;;;;;;;;10.11;91.51;101099.47;4971311;28;19953;-67
2023/01/07 09:17:27;;;;;;;;;;;;;;;10.10;92.85;101094.19;4970882;28;20360;-64
2023/01/07 09:19:53;;;;;;;;;;;;;;;10.01;91.88;101085.38;4970263;28;20536;-68
2023/01/07 09:22:18;;;;;;;;;;;;;;;10.14;92.79;101092.69;4969512;28;19973;-68
2023/01/07 09:24:43;;;;;;;;;;;;;;;10.10;91.84;101091.47;4970060;28;19918;-63
2023/01/07 09:27:08;;;;;;;;;;;;;;;10.14;92.46;101082.56;4970714;28;19932;-67
2023/01/07 09:29:33;;;;;;;;;;;;;;;10.19;92.16;101083.78;4971384;28;19969;-65
2023/01/07 09:31:59;;;;;;;;;;;;;;;10.31;91.93;101079.28;4970295;28;20048;-67
2023/01/07 09:34:24;;;;;;;;;;;;;;;10.26;90.39;101077.22;4970771;28;20380;-67
2023/01/07 09:36:49;;;;;;;;;;;;;;;10.30;91.29;101080.38;4971930;28;19922;-61
2023/01/07 09:39:14;;;;;;;;;;;;;;;10.32;91.37;101073.56;4989367;28;19918;-67
2023/01/07 09:41:48;;;;;;;;;;;;;;;10.29;91.99;101067.69;4989302;28;19917;-66
2023/01/07 09:44:16;;;;;;;;;;;;;;;10.38;91.53;101058.94;4990146;28;19918;-67
2023/01/07 09:46:42;;;;;;;;;;;;;;;10.37;90.79;101064.66;4989540;28;19952;-65
2023/01/07 09:49:15;;;;;;;;;;;;;;;10.44;89.38;101050.88;4989894;28;20304;-61
2023/01/07 09:51:43;;;;;;;;;;;;;;;10.45;91.11;101052.56;4988528;28;20343;-58
2023/01/07 09:54:16;;;;;;;;;;;;;;;10.50;89.38;101050.00;4989077;28;20280;-64
2023/01/07 09:56:42;;;;;;;;;;;;;;;10.60;89.08;101050.31;4989420;28;19965;-64
2023/01/07 09:59:09;;;;;;;;;;;;;;;10.68;87.29;101047.25;4989522;28;19918;-62
2023/01/07 10:01:39;;;;;;;;;;;;;;;10.70;86.78;101053.38;4970379;28;19933;-63
2023/01/07 10:04:04;;;;;;;;;;;;;;;10.86;85.86;101039.06;4968706;28;20044;-65
2023/01/07 10:06:29;;;;;;;;;;;;;;;11.18;86.26;101038.91;4966740;28;21111;-68
2023/01/07 10:08:54;;;;;;;;;;;;;;;11.70;84.29;101026.34;4967310;28;19930;-66
2023/01/07 10:11:28;;;;;;;;;;;;;;;12.23;81.94;101021.97;4967684;28;19925;-66
2023/01/07 10:14:12;;;;;;;;;;;;;;;12.70;78.40;101013.72;4967335;28;19925;-68
2023/01/07 10:16:37;;;;;;;;;;;;;;;13.19;78.11;100997.69;4967707;28;20336;-57
2023/01/07 10:19:13;;;;;;;;;;;;;;;13.69;73.07;100988.78;4967613;28;19946;-67
2023/01/07 10:21:42;;;;;;;;;;;;;;;14.05;71.50;100992.16;4966640;28;19918;-66
2023/01/07 10:24:15;;;;;;;;;;;;;;;14.25;71.65;100974.00;4967520;28;19929;-59
2023/01/07 10:26:42;;;;;;;;;;;;;;;14.66;70.78;100984.88;4967848;28;19914;-67
2023/01/07 10:29:26;;;;;;;;;;;;;;;14.85;68.44;100974.31;4967362;28;19964;-62
2023/01/07 10:31:52;;;;;;;;;;;;;;;15.18;67.17;100973.38;4966542;28;19973;-64
2023/01/07 10:34:20;;;;;;;;;;;;;;;15.12;64.86;100960.56;4967596;28;20474;-68
2023/01/07 10:36:53;;;;;;;;;;;;;;;14.99;65.44;100956.25;4965866;28;19969;-67
2023/01/07 10:39:28;;;;;;;;;;;;;;;15.15;66.57;100946.22;4966855;28;20000;-66
2023/01/07 10:42:12;;;;;;;;;;;;;;;15.37;62.80;100946.19;4967017;28;19919;-56
2023/01/07 10:44:40;;;;;;;;;;;;;;;15.51;62.54;100951.06;4959756;28;20301;-59
2023/01/07 10:47:14;;;;;;;;;;;;;;;15.12;61.92;100939.28;4950294;28;20258;-67
2023/01/07 10:49:53;;;;;;;;;;;;;;;14.94;63.03;100943.19;4949765;28;19964;-64
2023/01/07 10:52:34;;;;;;;;;;;;;;;15.08;63.49;100943.66;4948547;28;20026;-68
2023/01/07 10:55:12;;;;;;;;;;;;;;;15.07;61.20;100935.63;4949658;28;19918;-67
2023/01/07 10:57:37;;;;;;;;;;;;;;;14.94;62.07;100926.59;4949542;28;19922;-56
2023/01/07 11:00:04;;;;;;;;;;;;;;;15.15;60.29;100929.63;4950243;28;19925;-65
2023/01/07 11:02:30;;;;;;;;;;;;;;;15.23;60.82;100915.31;4960267;28;19918;-66
2023/01/07 11:04:56;;;;;;;;;;;;;;;15.14;60.97;100912.19;4968582;28;19918;-64
2023/01/07 11:07:21;;;;;;;;;;;;;;;15.44;60.09;100902.53;4967692;28;19922;-64
2023/01/07 11:09:47;;;;;;;;;;;;;;;15.73;59.84;100906.72;4968486;28;20250;-64
2023/01/07 11:12:14;;;;;;;;;;;;;;;15.59;60.19;100905.44;4968534;28;19926;-67
2023/01/07 11:14:40;;;;;;;;;;;;;;;15.38;59.12;100911.88;4968586;28;19977;-67
2023/01/07 11:17:09;;;;;;;;;;;;;;;14.90;58.30;100902.47;4968987;28;19918;-67
2023/01/07 11:19:44;;;;;;;;;;;;;;;14.73;58.62;100894.25;4969101;28;19914;-65
2023/01/07 11:22:25;;;;;;;;;;;;;;;14.47;60.08;100887.53;4967332;28;19918;-68
2023/01/07 11:24:50;;;;;;;;;;;;;;;14.19;62.19;100899.56;4968261;28;20493;-64
2023/01/07 11:27:16;;;;;;;;;;;;;;;14.01;62.13;100881.34;4968837;28;19933;-68
2023/01/07 11:30:02;;;;;;;;;;;;;;;14.02;62.50;100875.56;4967994;28;19918;-68
2023/01/07 11:32:29;;;;;;;;;;;;;;;13.52;64.74;100863.72;4968145;28;19922;-64
2023/01/07 11:35:00;;;;;;;;;;;;;;;13.79;63.60;100859.22;4967984;28;19969;-63
2023/01/07 11:37:32;;;;;;;;;;;;;;;14.13;62.23;100865.50;4966888;28;20331;-68
2023/01/07 11:39:58;;;;;;;;;;;;;;;14.25;62.58;100857.13;4968297;28;19976;-67
2023/01/07 11:42:38;;;;;;;;;;;;;;;14.71;59.97;100850.31;4967583;28;19997;-68
2023/01/07 11:45:27;;;;;;;;;;;;;;;14.48;60.63;100848.63;4968909;28;19941;-67
2023/01/07 11:48:05;;;;;;;;;;;;;;;14.07;62.98;100846.38;4966446;28;20575;-68
2023/01/07 11:50:33;;;;;;;;;;;;;;;14.03;61.20;100840.50;4967268;28;19922;-64
2023/01/07 11:53:20;;;;;;;;;;;;;;;14.25;62.42;100830.34;4966104;28;19957;-67
2023/01/07 11:55:59;;;;;;;;;;;;;;;14.24;61.60;100817.63;4967847;28;20452;-67
2023/01/07 11:58:26;;;;;;;;;;;;;;;13.95;62.52;100821.63;4967661;28;19925;-64
2023/01/07 12:01:06;;;;;;;;;;;;;;;13.98;61.86;100813.66;4967582;28;19958;-68
2023/01/07 12:03:32;;;;;;;;;;;;;;;14.00;63.33;100808.72;4967373;28;19972;-68
2023/01/07 12:06:02;;;;;;;;;;;;;;;13.93;62.49;100805.28;4981371;28;19926;-67
2023/01/07 12:08:28;;;;;;;;;;;;;;;13.72;63.00;100808.84;4966826;28;19926;-64
2023/01/07 12:10:55;;;;;;;;;;;;;;;13.85;63.00;100802.16;4967481;28;19918;-67
2023/01/07 12:13:24;;;;;;;;;;;;;;;14.03;63.10;100791.63;4967253;28;19918;-62
2023/01/07 12:16:09;;;;;;;;;;;;;;;14.03;62.29;100786.09;4983237;28;19922;-68
2023/01/07 12:18:54;;;;;;;;;;;;;;;14.74;61.16;100777.88;4965768;28;19969;-66
2023/01/07 12:21:31;;;;;;;;;;;;;;;15.03;59.56;100767.41;4982624;28;19921;-65
2023/01/07 12:23:56;;;;;;;;;;;;;;;15.25;58.54;100767.31;4986657;28;19918;-66
2023/01/07 12:26:24;;;;;;;;;;;;;;;15.36;58.55;100757.19;4987426;28;20017;-68
2023/01/07 12:29:04;;;;;;;;;;;;;;;15.10;58.79;100758.03;4971367;28;19922;-68
2023/01/07 12:31:38;;;;;;;;;;;;;;;14.39;58.86;100752.56;4966379;28;19957;-68
2023/01/07 12:34:16;;;;;;;;;;;;;;;14.17;61.11;100756.19;4967878;28;19918;-60
2023/01/07 12:36:49;;;;;;;;;;;;;;;14.22;60.62;100747.97;4966042;28;19949;-67
2023/01/07 12:39:19;;;;;;;;;;;;;;;14.61;59.45;100744.31;4978979;28;19922;-68
2023/01/07 12:41:47;;;;;;;;;;;;;;;14.79;59.67;100730.09;5001836;28;20575;-67
2023/01/07 12:44:12;;;;;;;;;;;;;;;15.05;57.73;100728.41;4979366;28;19930;-69
2023/01/07 12:46:40;;;;;;;;;;;;;;;15.31;58.83;100727.53;4967039;28;20290;-66